Time;durP1;ratioP1;P1;durP2;ratioP2;P2;SDS_P1;SDS_P2;PMS_P1;PMS_P2;Temp;Humidity;BMP_temperature;BMP_pressure;BME280_temperature;BME280_humidity;BME280_pressure;Samples;Min_cycle;Max_cycle;Signal;HPM_P1;HPM_P2
2021/12/17 00:00:23;;;;;;;30.63;12.40;;;;;;;1.75;100.00;99989.88;5074218;28;20194;-61
2021/12/17 00:05:46;;;;;;;28.70;12.97;;;;;;;1.77;100.00;99993.16;5073724;28;20208;-67
2021/12/17 00:08:15;;;;;;;26.23;12.53;;;;;;;1.81;100.00;99979.66;5073935;28;20665;-61
2021/12/17 00:10:42;;;;;;;35.27;12.77;;;;;;;1.78;100.00;99994.84;5074074;28;20205;-67
2021/12/17 00:13:11;;;;;;;31.30;13.30;;;;;;;1.71;100.00;99983.22;5073727;28;20714;-68
2021/12/17 00:15:39;;;;;;;31.37;12.60;;;;;;;1.73;100.00;99981.50;5073647;28;20214;-68
2021/12/17 00:18:12;;;;;;;31.20;13.40;;;;;;;1.68;100.00;99989.16;5073609;28;20241;-68
2021/12/17 00:40:26;;;;;;;30.07;12.73;;;;;;;1.78;100.00;99974.69;5073348;28;20222;-67
2021/12/17 00:48:35;;;;;;;25.43;12.17;;;;;;;1.67;100.00;99971.56;5073276;28;20205;-61
2021/12/17 00:51:41;;;;;;;29.63;12.63;;;;;;;1.66;100.00;99974.91;5073642;28;20306;-67
2021/12/17 00:54:08;;;;;;;26.63;12.47;;;;;;;1.69;100.00;99984.97;5072978;28;20689;-61
2021/12/17 00:56:37;;;;;;;26.07;11.40;;;;;;;1.71;100.00;99985.75;5072993;28;20269;-61
2021/12/17 00:59:06;;;;;;;28.17;12.10;;;;;;;1.66;100.00;99985.84;5072279;28;20676;-68
2021/12/17 01:01:33;;;;;;;33.73;12.57;;;;;;;1.69;100.00;99987.47;5072888;28;20250;-61
2021/12/17 01:04:00;;;;;;;31.00;13.30;;;;;;;1.65;100.00;99993.44;5072942;28;20206;-61
2021/12/17 01:06:27;;;;;;;27.43;11.23;;;;;;;1.67;100.00;99981.63;5072912;28;20761;-68
2021/12/17 01:08:54;;;;;;;28.93;12.23;;;;;;;1.64;100.00;99977.50;5072907;28;20636;-60
2021/12/17 01:11:22;;;;;;;28.60;11.90;;;;;;;1.67;100.00;99987.50;5073147;28;20223;-60
2021/12/17 01:13:50;;;;;;;23.27;11.17;;;;;;;1.66;100.00;99990.03;5072804;28;20209;-61
2021/12/17 01:16:18;;;;;;;30.47;13.10;;;;;;;1.69;100.00;99990.84;5072824;28;20242;-67
2021/12/17 01:18:55;;;;;;;30.43;12.57;;;;;;;1.59;100.00;99990.19;5072478;28;20703;-61
2021/12/17 01:21:33;;;;;;;29.50;13.93;;;;;;;1.62;100.00;99983.41;5072680;28;20736;-68
2021/12/17 01:43:23;;;;;;;26.33;11.07;;;;;;;1.34;100.00;99963.84;5071940;28;20248;-68
2021/12/17 01:45:52;;;;;;;24.80;11.20;;;;;;;1.33;100.00;99962.16;5072314;28;20207;-60
2021/12/17 01:48:25;;;;;;;24.07;10.70;;;;;;;1.38;100.00;99959.56;5072375;28;20202;-68
2021/12/17 01:56:37;;;;;;;22.63;11.20;;;;;;;1.24;100.00;99942.22;5072163;28;20220;-61
2021/12/17 01:59:26;;;;;;;26.63;11.43;;;;;;;1.23;100.00;99938.03;5072107;28;20212;-60
2021/12/17 02:02:02;;;;;;;25.67;10.63;;;;;;;1.25;100.00;99933.78;5072380;28;20702;-68
2021/12/17 02:04:30;;;;;;;25.00;10.47;;;;;;;1.20;100.00;99926.34;5072037;28;20269;-68
2021/12/17 02:06:57;;;;;;;25.67;10.87;;;;;;;1.19;100.00;99922.13;5072249;28;20235;-68
2021/12/17 02:12:29;;;;;;;20.10;9.80;;;;;;;1.16;100.00;99917.16;5054944;28;20226;-68
2021/12/17 02:21:07;;;;;;;22.93;9.70;;;;;;;1.19;100.00;99909.53;5071510;28;20205;-68
2021/12/17 02:29:27;;;;;;;20.60;9.40;;;;;;;1.20;100.00;99905.38;5071247;28;20213;-68
2021/12/17 02:31:58;;;;;;;21.33;8.77;;;;;;;1.24;100.00;99896.88;5071316;28;20237;-61
2021/12/17 02:34:39;;;;;;;21.07;10.37;;;;;;;1.19;100.00;99891.91;5071368;28;20706;-68
2021/12/17 02:37:11;;;;;;;23.20;10.23;;;;;;;1.24;100.00;99894.34;5071029;28;20296;-68
2021/12/17 02:39:58;;;;;;;20.20;9.67;;;;;;;1.18;100.00;99897.00;5070871;28;20298;-60
2021/12/17 02:42:39;;;;;;;24.83;10.50;;;;;;;1.18;100.00;99897.00;5071194;28;20223;-68
2021/12/17 02:48:02;;;;;;;25.10;9.93;;;;;;;1.25;100.00;99890.97;5071049;28;20319;-61
2021/12/17 02:50:29;;;;;;;21.33;9.13;;;;;;;1.22;100.00;99883.47;5071055;28;20198;-68
2021/12/17 02:53:00;;;;;;;21.37;10.60;;;;;;;1.25;100.00;99885.91;5071050;28;20245;-61
2021/12/17 02:55:29;;;;;;;18.67;9.43;;;;;;;1.25;100.00;99883.41;5071051;28;20205;-68
2021/12/17 02:57:56;;;;;;;21.60;9.67;;;;;;;1.31;100.00;99878.25;5071228;28;20238;-60
2021/12/17 03:00:23;;;;;;;21.07;9.23;;;;;;;1.34;100.00;99879.00;5070756;28;20206;-60
2021/12/17 03:02:51;;;;;;;19.17;9.27;;;;;;;1.34;100.00;99863.06;5070543;28;20252;-60
2021/12/17 03:05:18;;;;;;;19.03;9.27;;;;;;;1.37;100.00;99847.91;5070808;28;20598;-61
2021/12/17 03:07:47;;;;;;;20.10;9.53;;;;;;;1.42;100.00;99848.59;5070459;28;20218;-61
2021/12/17 03:10:16;;;;;;;19.83;9.40;;;;;;;1.44;100.00;99841.84;5070829;28;20577;-60
2021/12/17 03:12:46;;;;;;;21.93;9.87;;;;;;;1.46;100.00;99836.78;5070386;28;20226;-68
2021/12/17 03:15:22;;;;;;;24.30;9.13;;;;;;;1.48;100.00;99835.03;5070708;28;20275;-68
2021/12/17 03:23:41;;;;;;;19.67;8.67;;;;;;;1.49;100.00;99837.53;5008233;28;20211;-61
2021/12/17 03:26:11;;;;;;;16.63;8.07;;;;;;;1.50;100.00;99843.41;5055445;28;20261;-61
2021/12/17 03:28:39;;;;;;;20.37;9.33;;;;;;;1.48;100.00;99842.59;5070404;28;20676;-60
2021/12/17 03:31:07;;;;;;;19.20;9.10;;;;;;;1.46;100.00;99837.59;5070203;28;20215;-61
2021/12/17 03:33:41;;;;;;;22.20;9.80;;;;;;;1.58;100.00;99837.31;5070333;28;20601;-61
2021/12/17 03:36:08;;;;;;;19.37;8.97;;;;;;;1.68;100.00;99837.09;5070760;28;20225;-69
2021/12/17 03:38:35;;;;;;;16.90;8.40;;;;;;;1.65;100.00;99827.91;5069997;28;20811;-60
2021/12/17 03:41:10;;;;;;;19.10;9.27;;;;;;;1.70;100.00;99825.28;5070269;28;20202;-62
2021/12/17 03:43:39;;;;;;;20.07;9.33;;;;;;;1.72;100.00;99814.31;5070388;28;20201;-68
2021/12/17 03:46:06;;;;;;;16.10;8.73;;;;;;;1.75;100.00;99824.31;5070625;28;20205;-69
2021/12/17 03:48:36;;;;;;;16.80;8.50;;;;;;;1.77;100.00;99811.66;5070170;28;20198;-60
2021/12/17 03:51:03;;;;;;;16.73;8.73;;;;;;;1.78;100.00;99813.34;5070241;28;20206;-68
2021/12/17 03:53:31;;;;;;;19.07;8.57;;;;;;;1.70;100.00;99807.63;5070203;28;20207;-68
2021/12/17 03:55:58;;;;;;;20.63;9.90;;;;;;;1.66;100.00;99799.34;5070549;28;20600;-68
2021/12/17 03:58:25;;;;;;;18.73;8.33;;;;;;;1.68;100.00;99791.72;5070175;28;20226;-68
2021/12/17 04:00:53;;;;;;;17.57;9.13;;;;;;;1.72;100.00;99790.78;5070076;28;20203;-61
2021/12/17 04:03:20;;;;;;;18.67;9.00;;;;;;;1.72;100.00;99793.31;5070055;28;20622;-61
2021/12/17 04:05:47;;;;;;;20.77;9.07;;;;;;;1.68;100.00;99790.03;5070056;28;21046;-68
2021/12/17 04:08:14;;;;;;;17.53;8.50;;;;;;;1.71;100.00;99786.59;5070217;28;20218;-61
2021/12/17 04:10:44;;;;;;;20.87;8.93;;;;;;;1.79;100.00;99785.53;5070080;28;20202;-61
2021/12/17 04:13:26;;;;;;;15.43;7.73;;;;;;;1.88;100.00;99783.66;5069954;28;20250;-61
2021/12/17 04:15:57;;;;;;;18.00;8.67;;;;;;;1.94;100.00;99781.81;5070161;28;20207;-61
2021/12/17 04:18:24;;;;;;;19.37;8.67;;;;;;;1.95;100.00;99775.91;5069908;28;20234;-68
2021/12/17 04:20:51;;;;;;;16.17;8.30;;;;;;;1.94;100.00;99776.75;5069935;28;20198;-61
2021/12/17 04:23:20;;;;;;;16.60;8.00;;;;;;;1.91;100.00;99774.31;5069841;28;20218;-61
2021/12/17 04:25:48;;;;;;;18.57;8.97;;;;;;;1.92;100.00;99781.03;5069999;28;20670;-68
2021/12/17 04:28:15;;;;;;;19.27;8.77;;;;;;;1.93;100.00;99789.41;5069736;28;20202;-61
2021/12/17 04:30:43;;;;;;;16.87;8.93;;;;;;;1.94;100.00;99791.88;5069733;28;20263;-67
2021/12/17 04:33:12;;;;;;;16.70;8.00;;;;;;;2.03;100.00;99789.13;5070013;28;20306;-68
2021/12/17 04:35:39;;;;;;;15.00;7.57;;;;;;;2.07;100.00;99794.13;5072927;28;20203;-61
2021/12/17 04:38:08;;;;;;;15.20;7.20;;;;;;;2.13;100.00;99799.81;5073418;28;20238;-68
2021/12/17 04:40:36;;;;;;;18.10;8.07;;;;;;;2.13;100.00;99793.94;5073525;28;20205;-60
2021/12/17 04:43:13;;;;;;;14.37;7.97;;;;;;;2.14;100.00;99795.59;5073239;28;20254;-63
2021/12/17 04:45:44;;;;;;;15.30;7.83;;;;;;;2.14;100.00;99796.41;5073415;28;20202;-68
2021/12/17 04:59:12;;;;;;;14.20;7.10;;;;;;;2.21;100.00;99784.47;5073040;28;20773;-68
2021/12/17 05:01:39;;;;;;;12.33;7.37;;;;;;;2.21;100.00;99781.94;5073184;28;20222;-68
2021/12/17 05:04:07;;;;;;;13.93;7.20;;;;;;;2.19;100.00;99781.19;5072815;28;20209;-68
2021/12/17 05:06:34;;;;;;;13.17;7.23;;;;;;;2.23;100.00;99783.56;5072870;28;20226;-60
2021/12/17 05:09:07;;;;;;;11.90;6.90;;;;;;;2.32;100.00;99779.13;5072869;28;20306;-61
2021/12/17 05:19:48;;;;;;;13.77;7.10;;;;;;;2.24;100.00;99791.94;5072639;28;20277;-61
2021/12/17 05:22:17;;;;;;;12.70;6.83;;;;;;;2.29;100.00;99790.13;5072875;28;20241;-61
2021/12/17 05:24:43;;;;;;;12.30;6.37;;;;;;;2.28;100.00;99793.53;5072495;28;20675;-61
2021/12/17 05:27:10;;;;;;;13.33;7.63;;;;;;;2.30;100.00;99796.84;5072493;28;20219;-68
2021/12/17 05:29:37;;;;;;;13.30;7.13;;;;;;;2.26;100.00;99806.19;5072279;28;20206;-67
2021/12/17 05:32:05;;;;;;;10.63;5.90;;;;;;;2.31;100.00;99798.50;5072447;28;20225;-60
2021/12/17 05:34:32;;;;;;;13.97;7.03;;;;;;;2.39;100.00;99805.88;5072272;28;20195;-60
2021/12/17 05:37:00;;;;;;;14.33;7.23;;;;;;;2.37;100.00;99808.44;5072184;28;20730;-60
2021/12/17 05:39:27;;;;;;;15.47;6.97;;;;;;;2.38;100.00;99807.53;5072253;28;20230;-60
2021/12/17 05:41:54;;;;;;;14.37;7.13;;;;;;;2.43;100.00;99797.34;5072331;28;20230;-67
2021/12/17 05:44:21;;;;;;;13.00;6.60;;;;;;;2.43;100.00;99795.63;5072470;28;20634;-67
2021/12/17 05:46:51;;;;;;;11.50;6.23;;;;;;;2.41;100.00;99784.75;5072158;28;20233;-67
2021/12/17 05:49:18;;;;;;;13.30;6.80;;;;;;;2.42;100.00;99791.47;5072215;28;20203;-60
2021/12/17 05:51:45;;;;;;;13.40;6.90;;;;;;;2.40;100.00;99773.00;5072235;28;20679;-68
2021/12/17 05:54:14;;;;;;;12.17;6.20;;;;;;;2.47;100.00;99781.22;5071991;28;20314;-67
2021/12/17 05:56:41;;;;;;;15.27;6.80;;;;;;;2.43;100.00;99777.16;5072235;28;20227;-60
2021/12/17 05:59:08;;;;;;;15.33;8.20;;;;;;;2.37;100.00;99782.38;5071680;28;20237;-67
2021/12/17 06:01:36;;;;;;;13.27;6.20;;;;;;;2.40;100.00;99783.09;5072292;28;20261;-60
2021/12/17 06:04:03;;;;;;;12.60;6.70;;;;;;;2.44;100.00;99782.16;5071812;28;20195;-67
2021/12/17 06:06:31;;;;;;;13.53;6.83;;;;;;;2.43;100.00;99772.91;5071619;28;20223;-60
2021/12/17 06:09:00;;;;;;;10.57;6.03;;;;;;;2.46;100.00;99764.44;5071777;28;20222;-67
2021/12/17 06:11:28;;;;;;;13.83;6.47;;;;;;;2.46;100.00;99767.78;5071806;28;20219;-68
2021/12/17 06:13:55;;;;;;;12.43;6.53;;;;;;;2.48;100.00;99781.19;5071493;28;20210;-68
2021/12/17 06:16:22;;;;;;;13.83;6.67;;;;;;;2.52;100.00;99778.59;5071947;28;20214;-60
2021/12/17 06:18:49;;;;;;;11.40;6.23;;;;;;;2.56;100.00;99777.63;5071259;28;20226;-67
2021/12/17 06:21:17;;;;;;;10.50;5.93;;;;;;;2.55;100.00;99771.75;5071758;28;20218;-68
2021/12/17 06:23:43;;;;;;;11.77;6.27;;;;;;;2.57;100.00;99769.19;5071390;28;20222;-61
2021/12/17 06:26:10;;;;;;;15.10;6.53;;;;;;;2.56;100.00;99763.31;5071287;28;20234;-68
2021/12/17 06:28:38;;;;;;;13.63;6.97;;;;;;;2.62;100.00;99762.31;5071647;28;20691;-68
2021/12/17 06:31:05;;;;;;;11.27;6.00;;;;;;;2.62;100.00;99757.28;5071192;28;20213;-60
2021/12/17 06:33:32;;;;;;;10.37;5.97;;;;;;;2.75;100.00;99752.69;5071174;28;20202;-61
2021/12/17 06:35:59;;;;;;;14.83;7.00;;;;;;;2.77;100.00;99756.81;5071360;28;20652;-68
2021/12/17 06:38:26;;;;;;;10.67;5.63;;;;;;;2.84;100.00;99753.22;5071212;28;20241;-67
2021/12/17 06:40:53;;;;;;;11.87;5.63;;;;;;;2.87;100.00;99757.38;5071152;28;20195;-61
2021/12/17 06:43:24;;;;;;;14.47;6.90;;;;;;;2.83;100.00;99758.34;5071236;28;20198;-68
2021/12/17 06:45:57;;;;;;;12.00;6.20;;;;;;;2.84;100.00;99752.41;5071216;28;20225;-68
2021/12/17 06:48:28;;;;;;;11.40;6.27;;;;;;;2.88;100.00;99744.72;5071046;28;20740;-67
2021/12/17 06:59:22;;;;;;;12.33;6.13;;;;;;;3.12;100.00;99719.56;5070669;28;20718;-60
2021/12/17 07:10:28;;;;;;;13.63;7.73;;;;;;;3.31;100.00;99723.13;5070932;28;20675;-60
2021/12/17 07:19:01;;;;;;;10.77;6.43;;;;;;;3.43;100.00;99716.03;5070628;28;20217;-68
2021/12/17 07:21:30;;;;;;;13.27;7.30;;;;;;;3.38;100.00;99714.50;5070687;28;20232;-61
2021/12/17 07:32:45;;;;;;;11.77;6.40;;;;;;;3.63;100.00;99728.84;5070595;28;20432;-61
2021/12/17 07:40:52;;;;;;;11.37;6.63;;;;;;;3.88;100.00;99730.56;5070472;28;20578;-61
2021/12/17 07:43:29;;;;;;;13.60;6.17;;;;;;;3.92;100.00;99737.97;5070407;28;20195;-61
2021/12/17 07:45:57;;;;;;;10.60;6.13;;;;;;;4.03;100.00;99742.66;5070236;28;20260;-68
2021/12/17 07:48:25;;;;;;;12.00;6.33;;;;;;;4.02;100.00;99741.03;5070768;28;20199;-61
2021/12/17 07:50:54;;;;;;;14.93;7.90;;;;;;;4.19;100.00;99733.66;5070589;28;20198;-69
2021/12/17 07:53:21;;;;;;;12.77;6.77;;;;;;;4.15;100.00;99732.09;5070140;28;20210;-68
2021/12/17 07:55:47;;;;;;;9.83;6.20;;;;;;;4.14;100.00;99732.16;5070223;28;20656;-61
2021/12/17 07:58:14;;;;;;;12.20;6.43;;;;;;;4.06;100.00;99727.38;5070095;28;20241;-68
2021/12/17 08:00:41;;;;;;;12.47;6.67;;;;;;;4.08;100.00;99721.38;5070318;28;20607;-63
2021/12/17 08:03:10;;;;;;;13.13;6.20;;;;;;;4.12;100.00;99721.28;5070176;28;20219;-61
2021/12/17 08:05:38;;;;;;;13.00;6.33;;;;;;;4.12;100.00;99722.09;5069814;28;20202;-61
2021/12/17 08:08:06;;;;;;;11.77;6.33;;;;;;;4.25;100.00;99713.19;5070866;28;20218;-61
2021/12/17 08:10:33;;;;;;;11.07;6.20;;;;;;;4.26;100.00;99716.53;5074133;28;20202;-61
2021/12/17 08:13:00;;;;;;;10.87;6.03;;;;;;;4.25;100.00;99710.66;5074371;28;20650;-68
2021/12/17 08:15:32;;;;;;;10.97;5.77;;;;;;;4.27;100.00;99710.59;5074101;28;20644;-62
2021/12/17 08:26:26;;;;;;;11.67;5.73;;;;;;;4.36;100.00;99704.38;5074003;28;20269;-61
2021/12/17 08:29:24;;;;;;;9.90;5.70;;;;;;;4.39;100.00;99710.13;5074008;28;20199;-68
2021/12/17 08:31:51;;;;;;;9.90;6.10;;;;;;;4.29;100.00;99702.06;5073663;28;20229;-60
2021/12/17 08:34:18;;;;;;;8.97;5.63;;;;;;;4.38;100.00;99697.53;5073414;28;20202;-68
2021/12/17 08:36:45;;;;;;;11.43;5.77;;;;;;;4.50;100.00;99697.09;5073373;28;20552;-68
2021/12/17 08:39:13;;;;;;;9.50;5.13;;;;;;;4.45;100.00;99699.81;5073261;28;20234;-68
2021/12/17 08:41:41;;;;;;;10.90;6.07;;;;;;;4.39;100.00;99700.00;5073168;28;20222;-68
2021/12/17 08:44:08;;;;;;;9.90;5.43;;;;;;;4.41;100.00;99698.25;5073524;28;20615;-68
2021/12/17 08:46:36;;;;;;;10.83;6.00;;;;;;;4.37;100.00;99691.66;5073469;28;20219;-68
2021/12/17 08:49:05;;;;;;;10.47;5.97;;;;;;;4.35;100.00;99682.47;5073240;28;20203;-61
2021/12/17 08:51:32;;;;;;;10.63;5.63;;;;;;;4.42;100.00;99673.75;5072780;28;20239;-61
2021/12/17 08:53:59;;;;;;;8.57;5.17;;;;;;;4.50;100.00;99661.63;5073211;28;20680;-68
2021/12/17 08:56:30;;;;;;;9.30;5.63;;;;;;;4.66;100.00;99669.50;5073368;28;20603;-69
2021/12/17 08:59:01;;;;;;;12.70;6.50;;;;;;;4.80;100.00;99666.41;5073157;28;20230;-61
2021/12/17 09:01:28;;;;;;;12.20;6.23;;;;;;;4.89;100.00;99678.72;5073522;28;20215;-61
2021/12/17 09:03:55;;;;;;;10.47;6.33;;;;;;;4.96;100.00;99659.84;5073261;28;20221;-61
2021/12/17 09:06:26;;;;;;;10.27;6.07;;;;;;;5.07;100.00;99646.75;5072806;28;20769;-61
2021/12/17 09:08:54;;;;;;;12.90;6.53;;;;;;;5.17;100.00;99643.75;5073329;28;20187;-69
2021/12/17 09:11:22;;;;;;;9.93;5.60;;;;;;;5.11;99.84;99648.25;5073088;28;20229;-68
2021/12/17 09:13:51;;;;;;;14.27;7.00;;;;;;;5.13;99.28;99638.91;5072604;28;20495;-68
2021/12/17 09:16:20;;;;;;;11.63;6.20;;;;;;;5.18;99.34;99640.34;5072568;28;20610;-61
2021/12/17 09:18:47;;;;;;;11.00;5.90;;;;;;;5.12;99.15;99634.69;5072606;28;20636;-61
2021/12/17 09:21:14;;;;;;;11.27;5.90;;;;;;;5.18;99.55;99625.16;5072081;28;20218;-68
2021/12/17 09:23:42;;;;;;;10.30;6.63;;;;;;;5.34;99.42;99625.31;5072697;28;20210;-68
2021/12/17 09:26:10;;;;;;;13.33;6.80;;;;;;;5.40;98.82;99624.25;5072737;28;20227;-61
2021/12/17 09:28:36;;;;;;;11.67;6.70;;;;;;;5.38;99.06;99611.66;5072431;28;20202;-61
2021/12/17 09:31:05;;;;;;;12.60;6.50;;;;;;;5.50;98.61;99614.53;5072514;28;20218;-62
2021/12/17 09:33:32;;;;;;;11.70;6.73;;;;;;;5.54;98.42;99606.72;5072429;28;20248;-61
2021/12/17 09:35:59;;;;;;;11.47;6.40;;;;;;;5.63;98.16;99596.19;5072795;28;20206;-61
2021/12/17 09:38:26;;;;;;;10.07;6.07;;;;;;;5.68;97.41;99591.72;5072229;28;20206;-61
2021/12/17 09:40:52;;;;;;;15.63;7.03;;;;;;;5.80;97.16;99584.47;5072453;28;20437;-63
2021/12/17 09:43:19;;;;;;;10.33;6.07;;;;;;;5.80;96.87;99575.13;5072508;28;20618;-68
2021/12/17 09:45:46;;;;;;;12.10;5.70;;;;;;;5.86;96.44;99586.72;5072214;28;20207;-69
2021/12/17 09:48:15;;;;;;;13.13;6.70;;;;;;;5.83;95.61;99589.41;5072495;28;20229;-61
2021/12/17 09:50:42;;;;;;;11.17;6.57;;;;;;;5.90;95.48;99590.75;5072076;28;20209;-61
2021/12/17 09:53:09;;;;;;;13.07;6.60;;;;;;;5.78;94.93;99588.78;5072018;28;20218;-61
2021/12/17 09:55:36;;;;;;;10.90;6.00;;;;;;;5.75;94.69;99578.78;5072154;28;20203;-68
2021/12/17 09:58:03;;;;;;;9.53;6.27;;;;;;;5.64;95.46;99569.94;5072130;28;20773;-68
2021/12/17 10:00:30;;;;;;;13.73;7.00;;;;;;;5.72;95.07;99564.50;5071994;28;20230;-61
2021/12/17 10:02:57;;;;;;;16.50;8.37;;;;;;;5.74;95.53;99559.38;5071928;28;20229;-69
2021/12/17 10:05:28;;;;;;;13.27;7.40;;;;;;;5.64;94.39;99564.00;5071883;28;20453;-61
2021/12/17 10:07:58;;;;;;;14.77;7.87;;;;;;;5.55;94.65;99560.16;5071724;28;20754;-60
2021/12/17 10:10:33;;;;;;;13.40;6.67;;;;;;;5.56;93.35;99554.22;5071742;28;20687;-60
2021/12/17 10:13:08;;;;;;;15.00;8.57;;;;;;;5.40;94.07;99543.91;5071713;28;20222;-68
2021/12/17 10:15:37;;;;;;;13.47;7.50;;;;;;;5.38;95.23;99538.13;5071611;28;20227;-60
2021/12/17 10:18:04;;;;;;;12.40;6.87;;;;;;;5.41;94.14;99544.72;5071524;28;20230;-68
2021/12/17 10:20:34;;;;;;;12.93;7.33;;;;;;;5.29;95.33;99538.50;5071540;28;20230;-60
2021/12/17 10:23:04;;;;;;;13.90;7.17;;;;;;;5.25;96.74;99543.78;5071549;28;20726;-61
2021/12/17 10:25:33;;;;;;;12.03;6.60;;;;;;;5.30;97.13;99541.88;5071522;28;20248;-66
2021/12/17 10:28:03;;;;;;;12.87;6.70;;;;;;;5.35;96.71;99545.00;5071293;28;20727;-68
2021/12/17 10:30:32;;;;;;;13.03;6.77;;;;;;;5.39;97.30;99547.34;5071547;28;20210;-68
2021/12/17 10:33:01;;;;;;;12.43;6.63;;;;;;;5.55;97.07;99539.88;5070300;28;20226;-68
2021/12/17 10:35:29;;;;;;;12.17;6.53;;;;;;;5.66;96.63;99542.78;5071476;28;20584;-61
2021/12/17 10:38:03;;;;;;;16.30;7.07;;;;;;;5.75;96.06;99544.06;5071490;28;20226;-61
2021/12/17 10:40:34;;;;;;;13.47;7.33;;;;;;;5.83;96.28;99531.03;5071216;28;20252;-61
2021/12/17 10:43:05;;;;;;;12.13;6.47;;;;;;;5.92;96.30;99522.19;5071039;28;20233;-62
2021/12/17 10:45:38;;;;;;;16.57;8.00;;;;;;;5.91;95.42;99523.91;5071318;28;20648;-61
2021/12/17 10:48:28;;;;;;;12.97;7.03;;;;;;;5.94;95.21;99515.38;5071391;28;20220;-69
2021/12/17 10:51:15;;;;;;;14.43;7.50;;;;;;;6.06;95.56;99513.06;5071335;28;20198;-69
2021/12/17 10:53:53;;;;;;;12.20;7.10;;;;;;;6.13;93.80;99506.78;5071173;28;20202;-61
2021/12/17 10:56:23;;;;;;;12.33;7.37;;;;;;;6.13;93.25;99508.53;5069122;28;20254;-61
2021/12/17 10:58:59;;;;;;;14.30;7.70;;;;;;;6.27;92.64;99505.34;5070612;28;20215;-61
2021/12/17 11:01:32;;;;;;;13.37;7.03;;;;;;;6.40;92.66;99506.41;5070919;28;20229;-61
2021/12/17 11:04:11;;;;;;;13.07;6.97;;;;;;;6.60;92.65;99507.94;5070864;28;20199;-68
2021/12/17 11:06:43;;;;;;;20.23;10.40;;;;;;;6.76;92.61;99500.41;5070842;28;20222;-67
2021/12/17 11:09:12;;;;;;;12.13;6.80;;;;;;;6.70;92.14;99498.16;5070583;28;20199;-61
2021/12/17 11:11:42;;;;;;;15.30;7.27;;;;;;;6.54;92.84;99504.00;5070920;28;20637;-68
2021/12/17 11:14:09;;;;;;;13.97;7.40;;;;;;;6.39;93.21;99498.84;5070841;28;20209;-60
2021/12/17 11:16:39;;;;;;;15.03;7.10;;;;;;;6.38;94.07;99492.94;5070540;28;20226;-61
2021/12/17 11:19:07;;;;;;;14.43;8.07;;;;;;;6.33;94.09;99490.63;5070522;28;20215;-68
2021/12/17 11:21:35;;;;;;;19.20;9.83;;;;;;;6.21;94.02;99480.25;5070616;28;20261;-68
2021/12/17 11:24:02;;;;;;;14.17;8.03;;;;;;;6.22;94.52;99476.78;5070730;28;20202;-68
2021/12/17 11:26:31;;;;;;;17.30;8.77;;;;;;;6.16;94.83;99472.00;5070737;28;20596;-61
2021/12/17 11:29:02;;;;;;;14.57;7.50;;;;;;;6.06;94.34;99467.38;5070594;28;20580;-61
2021/12/17 11:31:31;;;;;;;14.67;8.17;;;;;;;6.08;94.39;99463.06;5070600;28;20229;-69
2021/12/17 11:34:00;;;;;;;15.33;7.73;;;;;;;6.13;94.55;99466.19;5070811;28;20605;-61
2021/12/17 11:36:28;;;;;;;14.23;7.63;;;;;;;6.03;94.35;99467.53;5070476;28;20311;-61
2021/12/17 11:39:03;;;;;;;16.17;7.23;;;;;;;6.08;93.99;99480.00;5070459;28;20203;-61
2021/12/17 11:41:47;;;;;;;13.93;7.20;;;;;;;6.05;93.87;99478.44;5070628;28;20226;-68
2021/12/17 11:44:18;;;;;;;16.67;7.87;;;;;;;6.09;93.93;99486.72;5070112;28;20289;-69
2021/12/17 11:47:02;;;;;;;20.13;9.43;;;;;;;6.10;92.71;99483.28;5070108;28;20225;-61
2021/12/17 11:49:34;;;;;;;16.23;8.27;;;;;;;6.00;92.46;99485.44;5070248;28;20260;-60
2021/12/17 11:52:01;;;;;;;14.47;6.83;;;;;;;6.15;91.65;99480.53;5070262;28;20230;-61
2021/12/17 11:54:31;;;;;;;15.13;7.03;;;;;;;6.18;91.75;99477.84;5070775;28;20195;-68
2021/12/17 11:57:08;;;;;;;13.63;7.73;;;;;;;6.08;90.85;99469.84;5070408;28;20221;-61
2021/12/17 11:59:38;;;;;;;11.13;6.43;;;;;;;6.06;89.93;99469.09;5070160;28;20778;-68
2021/12/17 12:02:11;;;;;;;21.40;7.83;;;;;;;6.11;90.73;99470.53;5070139;28;20218;-68
2021/12/17 12:04:47;;;;;;;14.87;7.40;;;;;;;6.23;89.91;99463.22;5070184;28;20230;-68
2021/12/17 12:07:16;;;;;;;13.27;7.57;;;;;;;6.22;89.88;99464.09;5070148;28;20225;-68
2021/12/17 12:10:00;;;;;;;12.83;7.17;;;;;;;6.05;89.69;99457.28;5070342;28;20236;-67
2021/12/17 12:12:51;;;;;;;14.00;7.67;;;;;;;5.98;90.93;99459.31;5070236;28;20225;-68
2021/12/17 12:15:37;;;;;;;15.27;8.00;;;;;;;5.93;92.14;99446.00;5069848;28;20241;-68
2021/12/17 12:18:10;;;;;;;16.93;7.77;;;;;;;5.84;92.67;99454.03;5069927;28;20234;-68
2021/12/17 12:20:49;;;;;;;14.80;7.87;;;;;;;5.77;93.42;99466.19;5069872;28;20234;-69
2021/12/17 12:23:18;;;;;;;13.80;7.83;;;;;;;5.72;94.34;99467.28;5069941;28;20207;-61
2021/12/17 12:25:46;;;;;;;15.53;7.57;;;;;;;5.66;95.32;99459.06;5069568;28;20668;-60
2021/12/17 12:28:16;;;;;;;12.47;6.23;;;;;;;5.64;95.76;99468.47;5069855;28;20194;-69
2021/12/17 12:30:45;;;;;;;13.03;7.60;;;;;;;5.51;96.54;99462.31;5069900;28;20211;-68
2021/12/17 12:33:15;;;;;;;13.83;7.67;;;;;;;5.51;96.48;99454.69;5069810;28;20221;-68
2021/12/17 12:35:57;;;;;;;15.97;8.53;;;;;;;5.51;96.85;99464.03;5069971;28;20252;-61
2021/12/17 12:38:31;;;;;;;16.87;8.60;;;;;;;5.43;97.00;99466.91;5070016;28;20230;-69
2021/12/17 12:41:03;;;;;;;16.20;8.17;;;;;;;5.42;97.90;99470.31;5070063;28;20230;-61
2021/12/17 12:43:33;;;;;;;18.47;8.97;;;;;;;5.48;97.98;99470.06;5069732;28;20203;-68
2021/12/17 12:46:01;;;;;;;15.53;8.97;;;;;;;5.44;97.97;99473.63;5069747;28;20206;-61
2021/12/17 12:48:33;;;;;;;16.03;8.53;;;;;;;5.34;98.41;99472.38;5069629;28;20215;-61
2021/12/17 12:51:18;;;;;;;17.53;9.50;;;;;;;5.32;99.15;99467.38;5069819;28;20210;-61
2021/12/17 12:54:01;;;;;;;16.03;8.47;;;;;;;5.38;99.12;99474.72;5069483;28;20210;-61
2021/12/17 12:56:28;;;;;;;13.63;7.03;;;;;;;5.39;98.48;99475.53;5072578;28;20229;-68
2021/12/17 12:58:57;;;;;;;17.63;8.53;;;;;;;5.39;98.58;99475.53;5073104;28;20214;-61
2021/12/17 13:01:24;;;;;;;16.80;9.40;;;;;;;5.37;98.39;99482.38;5073291;28;20244;-68
2021/12/17 13:03:51;;;;;;;14.87;8.33;;;;;;;5.39;98.18;99480.63;5072981;28;20209;-67
2021/12/17 13:06:20;;;;;;;15.97;8.87;;;;;;;5.31;97.68;99482.66;5072870;28;20230;-68
2021/12/17 13:08:54;;;;;;;16.17;8.60;;;;;;;5.38;97.68;99484.00;5072996;28;20198;-61
2021/12/17 13:11:21;;;;;;;19.97;9.43;;;;;;;5.29;96.87;99485.25;5072948;28;20253;-61
2021/12/17 13:13:53;;;;;;;20.23;10.47;;;;;;;5.32;96.54;99486.81;5072932;28;20404;-68
2021/12/17 13:16:34;;;;;;;19.87;10.27;;;;;;;5.26;95.00;99484.56;5072929;28;20242;-60
2021/12/17 13:21:59;;;;;;;20.43;10.50;;;;;;;5.04;96.45;99490.56;5073060;28;20233;-68
2021/12/17 13:24:28;;;;;;;20.90;9.53;;;;;;;5.00;97.95;99489.03;5072662;28;20202;-68
2021/12/17 13:26:56;;;;;;;18.33;9.53;;;;;;;5.01;98.57;99485.66;5073027;28;20728;-60
2021/12/17 13:29:30;;;;;;;19.57;10.20;;;;;;;4.98;99.22;99490.84;5072665;28;20203;-61
2021/12/17 13:32:01;;;;;;;19.70;10.40;;;;;;;4.85;99.84;99494.78;5072494;28;20325;-61
2021/12/17 13:34:30;;;;;;;21.63;11.90;;;;;;;4.71;100.00;99493.66;5072618;28;20297;-68
2021/12/17 13:37:10;;;;;;;17.00;9.20;;;;;;;4.60;100.00;99500.88;5072568;28;20226;-68
2021/12/17 13:39:41;;;;;;;14.60;7.80;;;;;;;4.50;100.00;99502.13;5072165;28;20198;-68
2021/12/17 13:42:10;;;;;;;17.47;9.23;;;;;;;4.49;100.00;99510.63;5072243;28;20218;-61
2021/12/17 13:44:41;;;;;;;14.23;8.03;;;;;;;4.47;100.00;99515.72;5072089;28;20217;-61
2021/12/17 13:47:15;;;;;;;14.27;7.93;;;;;;;4.42;100.00;99524.38;5072394;28;20222;-69
2021/12/17 13:49:44;;;;;;;11.23;4.27;;;;;;;4.47;100.00;99527.56;5072104;28;20191;-66
2021/12/17 13:52:10;;;;;;;16.63;8.27;;;;;;;4.46;100.00;99519.16;5072214;28;20215;-69
2021/12/17 13:54:38;;;;;;;14.40;7.90;;;;;;;4.36;100.00;99519.56;5072038;28;20203;-68
2021/12/17 13:57:07;;;;;;;15.17;9.20;;;;;;;4.40;100.00;99508.47;5071974;28;20715;-68
2021/12/17 13:59:36;;;;;;;19.00;9.43;;;;;;;4.40;100.00;99509.28;5072085;28;20891;-68
2021/12/17 14:02:12;;;;;;;14.00;7.90;;;;;;;4.43;100.00;99508.34;5071880;28;20226;-61
2021/12/17 14:04:40;;;;;;;13.30;7.20;;;;;;;4.48;100.00;99516.53;5072083;28;20231;-68